Dingess, West Virginia
Current Conditions -  °F | °C
As of 12:55 AM on Tuesday 27 Jan 2015 (Local Time) from KSJS Reporting Station
Overcast Overcast  
Wind Chill: 26°   Ceiling: 2600
Heat Index: 26°   Visibility: 10mi
Dew Point: 19°   Wind: 3mph
Humidity: 74%   Direction: 290°WNW
Pressure: 29.9"   Gusts: NA
Location:  37.87°N, 82.17°W
Report Text: KSJS 270555Z AUTO 29003KT 10SM OVC026 M03/M07 A2990 RMK AO2 T10311072 11027 21031
Loading
Personal Weather Stations






























Interactive Weather Map New forecast layout! Learn more

10-Day Weather Forecast

Advertisements
Track Severe Weather on mobile